createdAt,value
2022-12-15T00:01:17.293Z,8.37
2022-12-15T00:03:43.813Z,8.34
2022-12-15T00:06:10.317Z,8.38
2022-12-15T00:08:36.667Z,8.35
2022-12-15T00:11:03.090Z,8.37
2022-12-15T00:13:30.038Z,8.35
2022-12-15T00:15:56.824Z,8.40
2022-12-15T00:18:23.303Z,8.32
2022-12-15T00:20:49.693Z,8.39
2022-12-15T00:23:16.064Z,8.34
2022-12-15T00:25:42.513Z,8.26
2022-12-15T00:28:08.928Z,8.25
2022-12-15T00:30:35.303Z,8.30
2022-12-15T00:33:01.677Z,8.27
2022-12-15T00:35:28.006Z,8.21
2022-12-15T00:37:54.359Z,8.18
2022-12-15T00:40:23.470Z,8.16
2022-12-15T00:42:49.915Z,8.18
2022-12-15T00:45:16.333Z,8.16
2022-12-15T00:47:42.660Z,8.06
2022-12-15T00:50:09.134Z,7.99
2022-12-15T00:52:35.496Z,8.01
2022-12-15T00:55:01.887Z,8.02
2022-12-15T00:57:28.320Z,7.99
2022-12-15T00:59:54.708Z,7.95
2022-12-15T01:02:21.301Z,7.86
2022-12-15T01:04:47.893Z,7.78
2022-12-15T01:07:14.295Z,7.83
2022-12-15T01:09:40.719Z,7.86
2022-12-15T01:12:10.166Z,7.83
2022-12-15T01:14:36.537Z,7.80
2022-12-15T01:17:03.095Z,7.80
2022-12-15T01:19:29.458Z,7.80
2022-12-15T01:21:58.929Z,7.73
2022-12-15T01:24:32.650Z,7.65
2022-12-15T01:26:59.019Z,7.39
2022-12-15T01:29:25.979Z,7.43
2022-12-15T01:31:53.894Z,7.54
2022-12-15T01:34:20.507Z,7.59
2022-12-15T01:36:46.968Z,7.60
2022-12-15T01:39:13.387Z,7.49
2022-12-15T01:41:39.760Z,7.41
2022-12-15T01:44:06.158Z,7.36
2022-12-15T01:46:32.587Z,7.44
2022-12-15T01:48:59.009Z,7.20
2022-12-15T01:51:25.362Z,7.11
2022-12-15T01:53:51.756Z,7.23
2022-12-15T01:56:18.967Z,7.21
2022-12-15T01:58:45.319Z,7.23
2022-12-15T02:01:11.716Z,7.24
2022-12-15T02:03:40.946Z,7.39
2022-12-15T02:06:07.495Z,7.20
2022-12-15T02:08:33.856Z,7.09
2022-12-15T02:11:00.206Z,7.12
2022-12-15T02:13:26.683Z,7.31
2022-12-15T02:15:53.191Z,7.30
2022-12-15T02:18:19.695Z,7.30
2022-12-15T02:20:46.279Z,7.38
2022-12-15T02:23:12.663Z,7.45
2022-12-15T02:25:39.189Z,7.47
2022-12-15T02:28:05.737Z,7.51
2022-12-15T02:30:32.126Z,7.54
2022-12-15T02:32:58.481Z,7.54
2022-12-15T02:35:24.795Z,7.50
2022-12-15T02:37:51.148Z,7.47
2022-12-15T02:40:17.892Z,7.50
2022-12-15T02:42:44.257Z,7.56
2022-12-15T02:45:10.645Z,7.56
2022-12-15T02:47:36.971Z,7.34
2022-12-15T02:50:03.316Z,7.14
2022-12-15T02:52:29.669Z,7.11
2022-12-15T02:54:56.054Z,7.21
2022-12-15T02:57:22.399Z,7.37
2022-12-15T02:59:48.743Z,7.45
2022-12-15T03:02:15.271Z,7.46
2022-12-15T03:04:42.806Z,7.47
2022-12-15T03:07:09.198Z,7.45
2022-12-15T03:09:37.682Z,7.41
2022-12-15T03:12:05.916Z,7.40
2022-12-15T03:14:32.558Z,7.45
2022-12-15T03:16:58.985Z,7.41
2022-12-15T03:19:25.533Z,7.40
2022-12-15T03:21:51.957Z,7.44
2022-12-15T03:24:18.352Z,7.43
2022-12-15T03:26:44.720Z,7.47
2022-12-15T03:29:11.137Z,7.50
2022-12-15T03:31:37.624Z,7.45
2022-12-15T03:34:03.992Z,7.42
2022-12-15T03:36:30.340Z,7.38
2022-12-15T03:38:56.741Z,7.29
2022-12-15T03:41:23.097Z,7.31
2022-12-15T03:43:49.845Z,7.39
2022-12-15T03:46:18.776Z,7.44
2022-12-15T03:48:45.401Z,7.45
2022-12-15T03:51:11.735Z,7.45
2022-12-15T03:53:38.075Z,7.51
2022-12-15T03:56:05.460Z,7.55
2022-12-15T03:58:32.027Z,7.54
2022-12-15T04:00:58.401Z,7.49
2022-12-15T04:03:24.854Z,7.45
2022-12-15T04:05:51.272Z,7.48
2022-12-15T04:08:18.694Z,7.46
2022-12-15T04:10:45.027Z,7.46
2022-12-15T04:13:11.869Z,7.44
2022-12-15T04:15:41.404Z,7.37
2022-12-15T04:18:07.762Z,7.37
2022-12-15T04:20:34.160Z,7.36
2022-12-15T04:23:00.695Z,7.34
2022-12-15T04:25:27.137Z,7.32
2022-12-15T04:27:58.386Z,7.34
2022-12-15T04:30:27.670Z,7.36
2022-12-15T04:32:54.057Z,7.39
2022-12-15T04:35:20.425Z,7.40
2022-12-15T04:37:46.948Z,7.45
2022-12-15T04:40:13.331Z,7.49
2022-12-15T04:42:39.876Z,7.50
2022-12-15T04:45:06.260Z,7.43
2022-12-15T04:50:14.273Z,7.43
2022-12-15T04:52:41.377Z,7.44
2022-12-15T04:55:07.753Z,7.48
2022-12-15T04:57:34.090Z,7.46
2022-12-15T05:00:00.451Z,7.49
2022-12-15T05:02:26.920Z,7.56
2022-12-15T05:04:53.369Z,7.57
2022-12-15T05:07:19.722Z,7.56
2022-12-15T05:09:46.080Z,7.55
2022-12-15T05:12:12.596Z,7.55
2022-12-15T05:14:38.981Z,7.60
2022-12-15T05:17:05.426Z,7.61
2022-12-15T05:19:31.780Z,7.59
2022-12-15T05:21:58.179Z,7.61
2022-12-15T05:24:24.625Z,7.60
2022-12-15T05:26:53.244Z,7.56
2022-12-15T05:32:00.510Z,7.57
2022-12-15T05:34:26.924Z,7.56
2022-12-15T05:36:53.314Z,7.53
2022-12-15T05:39:19.699Z,7.46
2022-12-15T05:41:46.105Z,7.45
2022-12-15T05:44:12.442Z,7.49
2022-12-15T05:46:38.805Z,7.48
2022-12-15T05:49:05.178Z,7.49
2022-12-15T05:51:31.502Z,7.52
2022-12-15T05:53:58.055Z,7.53
2022-12-15T05:56:24.426Z,7.51
2022-12-15T05:58:50.803Z,7.49
2022-12-15T06:01:17.544Z,7.48
2022-12-15T06:03:44.013Z,7.44
2022-12-15T06:06:14.030Z,7.43
2022-12-15T06:08:41.405Z,7.43
2022-12-15T06:13:49.573Z,7.47
2022-12-15T06:16:16.022Z,7.37
2022-12-15T06:21:22.908Z,7.40
2022-12-15T06:23:57.464Z,7.41
2022-12-15T06:26:23.884Z,7.40
2022-12-15T06:29:05.124Z,7.41
2022-12-15T06:31:31.752Z,7.46
2022-12-15T06:36:40.623Z,7.45
2022-12-15T06:39:07.174Z,7.48
2022-12-15T06:41:33.606Z,7.51
2022-12-15T06:44:00.078Z,7.50
2022-12-15T06:46:26.608Z,7.47
2022-12-15T06:48:53.188Z,7.46
2022-12-15T06:51:19.705Z,7.45
2022-12-15T06:53:46.273Z,7.47
2022-12-15T06:56:12.746Z,7.46
2022-12-15T06:58:39.178Z,7.46
2022-12-15T07:01:05.738Z,7.47
2022-12-15T07:03:32.473Z,7.52
2022-12-15T07:06:11.395Z,7.53
2022-12-15T07:08:41.351Z,7.57
2022-12-15T07:11:08.260Z,7.56
2022-12-15T07:13:34.835Z,7.53
2022-12-15T07:16:06.998Z,7.50
2022-12-15T07:18:33.426Z,7.56
2022-12-15T07:21:02.011Z,7.56
2022-12-15T07:23:52.670Z,7.49
2022-12-15T07:26:21.475Z,7.39
2022-12-15T07:28:47.938Z,7.54
2022-12-15T07:31:14.398Z,7.54
2022-12-15T07:33:47.864Z,7.63
2022-12-15T07:36:14.317Z,7.66
2022-12-15T07:38:42.929Z,7.66
2022-12-15T07:41:09.466Z,7.73
2022-12-15T07:43:36.591Z,7.73
2022-12-15T07:46:11.227Z,7.72
2022-12-15T07:48:37.913Z,7.72
2022-12-15T07:51:10.907Z,7.73
2022-12-15T07:53:41.935Z,7.84
2022-12-15T07:56:11.348Z,8.00
2022-12-15T07:58:37.836Z,8.01
2022-12-15T08:01:04.392Z,8.08
2022-12-15T08:03:31.296Z,8.15
2022-12-15T08:06:03.869Z,8.18
2022-12-15T08:08:30.916Z,8.18
2022-12-15T08:10:57.664Z,8.11
2022-12-15T08:14:00.225Z,8.14
2022-12-15T08:16:12.870Z,8.13
2022-12-15T08:18:40.299Z,8.09
2022-12-15T08:23:54.784Z,8.18
2022-12-15T08:26:29.785Z,8.23
2022-12-15T08:28:57.128Z,8.29
2022-12-15T08:31:27.109Z,8.25
2022-12-15T08:33:53.612Z,8.28
2022-12-15T08:36:28.456Z,8.31
2022-12-15T08:38:55.017Z,8.31
2022-12-15T08:41:23.847Z,8.32
2022-12-15T08:43:50.464Z,8.36
2022-12-15T08:49:02.160Z,8.26
2022-12-15T08:51:28.526Z,8.30
2022-12-15T08:53:54.934Z,8.32
2022-12-15T08:56:22.278Z,8.34
2022-12-15T08:58:57.680Z,8.36
2022-12-15T09:01:24.438Z,8.38
2022-12-15T09:03:51.165Z,8.39
2022-12-15T09:06:17.679Z,8.41
2022-12-15T09:08:44.172Z,8.43
2022-12-15T09:11:15.066Z,8.46
2022-12-15T09:13:41.494Z,8.48
2022-12-15T09:16:10.013Z,8.50
2022-12-15T09:18:37.094Z,8.53
2022-12-15T09:21:03.618Z,8.54
2022-12-15T09:23:35.474Z,8.55
2022-12-15T09:28:42.709Z,8.56
2022-12-15T09:31:16.803Z,8.54
2022-12-15T09:33:47.330Z,8.51
2022-12-15T09:36:22.560Z,8.55
2022-12-15T09:38:48.972Z,8.57
2022-12-15T09:41:16.604Z,8.62
2022-12-15T09:43:47.127Z,8.63
2022-12-15T09:46:14.075Z,8.66
2022-12-15T09:48:40.592Z,8.67
2022-12-15T09:51:07.018Z,8.68
2022-12-15T09:53:57.424Z,8.66
2022-12-15T09:56:19.878Z,8.65
2022-12-15T09:58:48.832Z,8.65
2022-12-15T10:01:17.172Z,8.61
2022-12-15T10:03:43.737Z,8.65
2022-12-15T10:06:20.045Z,8.61
2022-12-15T10:08:50.843Z,8.65
2022-12-15T10:11:18.433Z,8.66
2022-12-15T10:13:44.931Z,8.69
2022-12-15T10:16:11.751Z,8.67
2022-12-15T10:18:38.273Z,8.60
2022-12-15T10:21:04.684Z,8.67
2022-12-15T10:23:31.452Z,8.73
2022-12-15T10:25:58.365Z,8.76
2022-12-15T10:28:24.808Z,8.80
2022-12-15T10:30:51.410Z,8.77
2022-12-15T10:33:18.042Z,8.82
2022-12-15T10:35:44.598Z,8.86
2022-12-15T10:38:23.341Z,8.89
2022-12-15T10:40:52.845Z,8.92
2022-12-15T10:43:19.367Z,8.92
2022-12-15T10:45:45.917Z,8.88
2022-12-15T10:48:12.312Z,8.90
2022-12-15T10:50:38.775Z,8.94
2022-12-15T10:53:05.283Z,8.95
2022-12-15T10:55:31.852Z,9.00
2022-12-15T10:57:58.210Z,9.01
2022-12-15T11:00:24.660Z,9.03
2022-12-15T11:02:51.509Z,9.06
2022-12-15T11:05:20.828Z,9.07
2022-12-15T11:07:47.570Z,9.09
2022-12-15T11:10:15.107Z,9.08
2022-12-15T11:12:41.635Z,9.10
2022-12-15T11:15:08.175Z,9.11
2022-12-15T11:17:34.665Z,9.12
2022-12-15T11:20:03.099Z,9.13
2022-12-15T11:22:29.962Z,9.12
2022-12-15T11:24:57.741Z,9.06
2022-12-15T11:27:24.466Z,9.09
2022-12-15T11:29:50.906Z,9.13
2022-12-15T11:32:17.389Z,9.14
2022-12-15T11:35:02.008Z,9.13
2022-12-15T11:37:34.237Z,9.15
2022-12-15T11:40:09.259Z,9.19
2022-12-15T11:42:38.698Z,9.21
2022-12-15T11:45:11.317Z,9.25
2022-12-15T11:47:39.908Z,9.28
2022-12-15T11:50:06.463Z,9.27
2022-12-15T11:52:32.969Z,9.30
2022-12-15T11:57:39.779Z,9.33
2022-12-15T12:00:06.221Z,9.31
2022-12-15T12:02:32.881Z,9.36
2022-12-15T12:04:59.555Z,9.38
2022-12-15T12:07:26.181Z,9.43
2022-12-15T12:09:52.720Z,9.47
2022-12-15T12:12:19.289Z,9.49
2022-12-15T12:14:45.827Z,9.46
2022-12-15T12:17:17.190Z,9.48
2022-12-15T12:19:43.575Z,9.48
2022-12-15T12:22:10.008Z,9.47
2022-12-15T12:24:48.918Z,9.49
2022-12-15T12:27:24.438Z,9.51
2022-12-15T12:29:50.918Z,9.52
2022-12-15T12:32:17.386Z,9.52
2022-12-15T12:34:43.988Z,9.48
2022-12-15T12:37:10.493Z,9.51
2022-12-15T12:39:36.952Z,9.51
2022-12-15T12:42:04.308Z,9.52
2022-12-15T12:44:30.951Z,9.50
2022-12-15T12:46:57.732Z,9.49
2022-12-15T12:49:26.703Z,9.49
2022-12-15T12:51:53.558Z,9.48
2022-12-15T12:54:22.228Z,9.47
2022-12-15T12:56:50.640Z,9.47
2022-12-15T12:59:17.172Z,9.46
2022-12-15T13:01:43.775Z,9.43
2022-12-15T13:04:10.264Z,9.39
2022-12-15T13:06:36.708Z,9.35
2022-12-15T13:09:04.411Z,9.33
2022-12-15T13:11:30.980Z,9.31
2022-12-15T13:13:57.396Z,9.32
2022-12-15T13:16:25.236Z,9.35
2022-12-15T13:21:38.907Z,9.41
2022-12-15T13:24:05.365Z,9.41
2022-12-15T13:26:31.913Z,9.43
2022-12-15T13:28:58.409Z,9.44
2022-12-15T13:31:25.171Z,9.44
2022-12-15T13:33:51.846Z,9.43
2022-12-15T13:36:18.331Z,9.40
2022-12-15T13:38:46.146Z,9.39
2022-12-15T13:41:17.158Z,9.39
2022-12-15T13:43:43.615Z,9.40
2022-12-15T13:46:10.194Z,9.40
2022-12-15T13:48:36.784Z,9.39
2022-12-15T13:51:03.475Z,9.39
2022-12-15T13:53:29.912Z,9.38
2022-12-15T13:55:56.434Z,9.35
2022-12-15T13:58:22.984Z,9.34
2022-12-15T14:00:53.725Z,9.34
2022-12-15T14:03:20.300Z,9.33
2022-12-15T14:05:46.750Z,9.34
2022-12-15T14:08:13.289Z,9.35
2022-12-15T14:10:39.826Z,9.35
2022-12-15T14:13:15.465Z,9.34
2022-12-15T14:15:42.767Z,9.33
2022-12-15T14:18:09.203Z,9.36
2022-12-15T14:20:35.591Z,9.33
2022-12-15T14:23:02.022Z,9.34
2022-12-15T14:25:28.433Z,9.34
2022-12-15T14:27:54.869Z,9.35
2022-12-15T14:30:21.309Z,9.33
2022-12-15T14:32:47.836Z,9.31
2022-12-15T14:35:17.019Z,9.31
2022-12-15T14:37:43.467Z,9.33
2022-12-15T14:40:09.931Z,9.27
2022-12-15T14:42:36.366Z,9.28
2022-12-15T14:45:02.776Z,9.30
2022-12-15T14:47:29.324Z,9.30
2022-12-15T14:49:55.744Z,9.30
2022-12-15T14:52:23.367Z,9.31
2022-12-15T14:54:49.851Z,9.30
2022-12-15T14:57:16.238Z,9.28
2022-12-15T14:59:42.671Z,9.29
2022-12-15T15:02:09.405Z,9.30
2022-12-15T15:04:35.900Z,9.28
2022-12-15T15:07:02.289Z,9.28
2022-12-15T15:09:28.710Z,9.26
2022-12-15T15:11:55.093Z,9.27
2022-12-15T15:14:21.531Z,9.27
2022-12-15T15:16:48.097Z,9.23
2022-12-15T15:19:15.820Z,9.25
2022-12-15T15:21:42.248Z,9.24
2022-12-15T15:24:08.695Z,9.24
2022-12-15T15:26:35.231Z,9.22
2022-12-15T15:29:08.496Z,9.18
2022-12-15T15:31:41.055Z,9.18
2022-12-15T15:34:08.372Z,9.17
2022-12-15T15:36:35.101Z,9.15
2022-12-15T15:39:02.662Z,9.12
2022-12-15T15:41:29.073Z,9.11
2022-12-15T15:43:55.570Z,9.07
2022-12-15T15:46:27.376Z,9.03
2022-12-15T15:48:54.489Z,9.03
2022-12-15T15:51:22.246Z,9.04
2022-12-15T15:53:48.718Z,9.02
2022-12-15T15:56:16.548Z,9.02
2022-12-15T15:58:43.690Z,8.96
2022-12-15T16:01:14.519Z,8.95
2022-12-15T16:03:41.138Z,9.01
2022-12-15T16:06:09.605Z,9.02
2022-12-15T16:08:41.894Z,9.02
2022-12-15T16:11:10.916Z,9.02
2022-12-15T16:13:37.362Z,9.01
2022-12-15T16:16:04.034Z,9.01
2022-12-15T16:18:31.837Z,9.01
2022-12-15T16:21:00.411Z,9.00
2022-12-15T16:23:26.831Z,8.99
2022-12-15T16:25:54.015Z,9.00
2022-12-15T16:28:20.598Z,9.02
2022-12-15T16:30:47.164Z,9.01
2022-12-15T16:33:15.396Z,9.02
2022-12-15T16:35:42.074Z,8.99
2022-12-15T16:38:08.549Z,9.00
2022-12-15T16:40:34.983Z,9.02
2022-12-15T16:43:04.889Z,9.00
2022-12-15T16:45:33.020Z,8.96
2022-12-15T16:47:59.525Z,8.96
2022-12-15T16:50:28.313Z,8.95
2022-12-15T16:52:54.693Z,8.96
2022-12-15T16:55:21.168Z,8.98
2022-12-15T16:57:55.169Z,8.99
2022-12-15T17:00:21.625Z,9.00
2022-12-15T17:02:48.186Z,9.01
2022-12-15T17:05:16.812Z,9.00
2022-12-15T17:07:43.262Z,8.97
2022-12-15T17:10:12.661Z,8.99
2022-12-15T17:12:46.596Z,8.97
2022-12-15T17:15:12.909Z,8.97
2022-12-15T17:17:39.466Z,8.97
2022-12-15T17:22:52.370Z,8.83
2022-12-15T17:25:27.388Z,8.80
2022-12-15T17:28:04.172Z,8.82
2022-12-15T17:30:30.513Z,8.85
2022-12-15T17:32:56.924Z,8.88
2022-12-15T17:35:23.421Z,8.91
2022-12-15T17:37:49.852Z,8.90
2022-12-15T17:40:16.410Z,8.91
2022-12-15T17:42:43.842Z,8.91
2022-12-15T17:45:10.284Z,8.92
2022-12-15T17:47:36.717Z,8.89
2022-12-15T17:50:07.175Z,8.89
2022-12-15T17:52:33.576Z,8.89
2022-12-15T17:55:00.006Z,8.90
2022-12-15T17:57:26.384Z,8.91
2022-12-15T17:59:53.225Z,8.90
2022-12-15T18:02:19.704Z,8.91
2022-12-15T18:04:46.264Z,8.93
2022-12-15T18:07:12.650Z,8.94
2022-12-15T18:09:40.395Z,8.94
2022-12-15T18:12:06.921Z,8.91
2022-12-15T18:14:33.331Z,8.91
2022-12-15T18:17:09.319Z,8.93
2022-12-15T18:22:18.927Z,8.84
2022-12-15T18:24:45.279Z,8.85
2022-12-15T18:27:17.721Z,8.89
2022-12-15T18:29:44.139Z,8.91
2022-12-15T18:32:10.551Z,8.89
2022-12-15T18:34:36.943Z,8.91
2022-12-15T18:37:03.394Z,8.92
2022-12-15T18:39:29.849Z,8.92
2022-12-15T18:41:56.313Z,8.91
2022-12-15T18:44:22.754Z,8.90
2022-12-15T18:46:55.107Z,8.85
2022-12-15T18:49:21.917Z,8.87
2022-12-15T18:51:48.258Z,8.88
2022-12-15T18:54:29.385Z,8.88
2022-12-15T18:56:58.337Z,8.88
2022-12-15T18:59:24.813Z,8.86
2022-12-15T19:01:56.230Z,8.86
2022-12-15T19:04:22.693Z,8.86
2022-12-15T19:06:49.087Z,8.86
2022-12-15T19:09:15.450Z,8.73
2022-12-15T19:11:41.815Z,8.75
2022-12-15T19:14:08.176Z,8.80
2022-12-15T19:16:35.087Z,8.82
2022-12-15T19:19:01.549Z,8.85
2022-12-15T19:21:28.020Z,8.84
2022-12-15T19:23:54.518Z,8.84
2022-12-15T19:26:20.892Z,8.85
2022-12-15T19:28:54.551Z,8.86
2022-12-15T19:31:21.082Z,8.86
2022-12-15T19:33:47.535Z,8.86
2022-12-15T19:36:13.938Z,8.86
2022-12-15T19:38:40.355Z,8.86
2022-12-15T19:41:06.751Z,8.86
2022-12-15T19:43:36.768Z,8.84
2022-12-15T19:46:03.559Z,8.85
2022-12-15T19:48:30.087Z,8.83
2022-12-15T19:50:56.472Z,8.83
2022-12-15T19:53:22.844Z,8.81
2022-12-15T19:55:49.281Z,8.82
2022-12-15T19:58:15.629Z,8.82
2022-12-15T20:00:42.102Z,8.81
2022-12-15T20:03:08.566Z,8.80
2022-12-15T20:05:35.099Z,8.79
2022-12-15T20:08:12.439Z,8.78
2022-12-15T20:10:38.849Z,8.75
2022-12-15T20:13:05.335Z,8.74
2022-12-15T20:15:31.689Z,8.74
2022-12-15T20:17:58.183Z,8.72
2022-12-15T20:20:28.041Z,8.64
2022-12-15T20:22:54.504Z,8.67
2022-12-15T20:25:20.855Z,8.66
2022-12-15T20:27:47.234Z,8.66
2022-12-15T20:30:16.478Z,8.68
2022-12-15T20:32:44.176Z,8.68
2022-12-15T20:35:10.713Z,8.69
2022-12-15T20:37:38.042Z,8.71
2022-12-15T20:40:04.425Z,8.71
2022-12-15T20:42:30.781Z,8.69
2022-12-15T20:44:57.168Z,8.69
2022-12-15T20:47:23.650Z,8.69
2022-12-15T20:49:52.925Z,8.67
2022-12-15T20:52:19.354Z,8.66
2022-12-15T20:57:36.166Z,8.66
2022-12-15T21:00:02.564Z,8.67
2022-12-15T21:05:20.009Z,8.63
2022-12-15T21:07:46.338Z,8.61
2022-12-15T21:10:12.759Z,8.61
2022-12-15T21:12:39.410Z,8.63
2022-12-15T21:15:08.227Z,8.65
2022-12-15T21:17:38.692Z,8.64
2022-12-15T21:20:10.470Z,8.66
2022-12-15T21:22:37.091Z,8.65
2022-12-15T21:25:06.187Z,8.66
2022-12-15T21:27:32.654Z,8.65
2022-12-15T21:29:59.032Z,8.66
2022-12-15T21:32:25.534Z,8.66
2022-12-15T21:34:55.778Z,8.69
2022-12-15T21:37:24.714Z,8.69
2022-12-15T21:39:51.866Z,8.71
2022-12-15T21:42:19.141Z,8.71
2022-12-15T21:44:45.553Z,8.68
2022-12-15T21:47:11.935Z,8.65
2022-12-15T21:49:39.820Z,8.66
2022-12-15T21:52:18.474Z,8.69
2022-12-15T21:54:48.666Z,8.70
2022-12-15T21:57:15.176Z,8.72
2022-12-15T21:59:41.568Z,8.71
2022-12-15T22:02:09.558Z,8.70
2022-12-15T22:04:36.078Z,8.71
2022-12-15T22:07:08.363Z,8.72
2022-12-15T22:09:34.885Z,8.73
2022-12-15T22:12:04.185Z,8.73
2022-12-15T22:17:12.020Z,8.73
2022-12-15T22:19:38.489Z,8.76
2022-12-15T22:22:07.062Z,8.75
2022-12-15T22:24:34.450Z,8.75
2022-12-15T22:27:01.060Z,8.78
2022-12-15T22:29:27.455Z,8.79
2022-12-15T22:31:55.024Z,8.65
2022-12-15T22:34:21.594Z,8.68
2022-12-15T22:36:48.093Z,8.68
2022-12-15T22:39:14.687Z,8.65
2022-12-15T22:41:41.156Z,8.65
2022-12-15T22:44:07.627Z,8.66
2022-12-15T22:46:34.571Z,8.65
2022-12-15T22:49:01.045Z,8.68
2022-12-15T22:51:27.691Z,8.71
2022-12-15T22:53:54.136Z,8.72
2022-12-15T22:56:21.299Z,8.70
2022-12-15T22:58:47.710Z,8.71
2022-12-15T23:01:19.346Z,8.73
2022-12-15T23:03:46.773Z,8.73
2022-12-15T23:06:15.668Z,8.75
2022-12-15T23:08:42.452Z,8.74
2022-12-15T23:11:09.226Z,8.69
2022-12-15T23:13:35.704Z,8.69
2022-12-15T23:16:05.423Z,8.66
2022-12-15T23:18:32.559Z,8.62
2022-12-15T23:20:58.931Z,8.53
2022-12-15T23:23:25.315Z,8.48
2022-12-15T23:25:51.791Z,8.45
2022-12-15T23:28:18.217Z,8.43
2022-12-15T23:30:44.642Z,8.43
2022-12-15T23:33:11.030Z,8.41
2022-12-15T23:35:37.422Z,8.45
2022-12-15T23:38:03.953Z,8.37
2022-12-15T23:40:30.454Z,8.41
2022-12-15T23:42:56.906Z,8.39
2022-12-15T23:45:23.354Z,8.36
2022-12-15T23:47:49.834Z,8.10
2022-12-15T23:50:16.287Z,8.01
2022-12-15T23:52:42.774Z,7.89
2022-12-15T23:55:09.155Z,7.95
2022-12-15T23:57:35.539Z,8.00
